Terminal Aerodrome Forecast
Issued by NWS

Home | Current Version | Previous Version | Text Only | Print | Product List | Glossary On
Versions: 1 2 3 4 5 6 7 8 9 10 11 12 13 14 15
195
FTUS42 TJSJ 040527
TAFIST
TAF
TIST 040527Z 0406/0506 10009KT P6SM FEW025 SCT070
     FM041300 13012KT P6SM VCSH SCT020 SCT040 SCT080
     FM042230 VRB06KT P6SM FEW030=

USA.gov is the U.S. government's official web portal to all federal, state and local government web resources and services.